Anaconda, Montana
Current Conditions -  °F | °C
As of 5:53 AM on Monday 22 Dec 2014 (Local Time) from KBTM Reporting Station
Overcast Overcast  
Wind Chill: 21°   Ceiling: 7000
Heat Index: 30°   Visibility: 10mi
Dew Point: 21°   Wind: 12mph
Humidity: 69%   Direction: 290°WNW
Pressure: 29.86"   Gusts: 20mph
Location:  46.13°N, 112.94°W
Report Text: KBTM 221253Z AUTO 29010G17KT 10SM BKN070 OVC110 M01/M06 A2986 RMK AO2 SNE06 SLP135 P0000 T10111061
Loading
Personal Weather Stations






























Interactive Weather Map New forecast layout! Learn more

10-Day Weather Forecast

Advertisements
Track Severe Weather on mobile